sensor_id;sensor_type;location;lat;lon;timestamp;P1;durP1;ratioP1;P2;durP2;ratioP2
26594;SDS011;14238;49.496;8.154;2023-12-29T00:01:29;3.33;;;3.03;;
26594;SDS011;14238;49.496;8.154;2023-12-29T00:03:55;3.77;;;3.47;;
26594;SDS011;14238;49.496;8.154;2023-12-29T00:06:21;3.63;;;3.20;;
26594;SDS011;14238;49.496;8.154;2023-12-29T00:08:47;4.23;;;3.00;;
26594;SDS011;14238;49.496;8.154;2023-12-29T00:11:19;3.20;;;3.00;;
26594;SDS011;14238;49.496;8.154;2023-12-29T00:13:46;3.83;;;3.43;;
26594;SDS011;14238;49.496;8.154;2023-12-29T00:16:12;3.90;;;3.60;;
26594;SDS011;14238;49.496;8.154;2023-12-29T00:18:38;3.27;;;3.07;;
26594;SDS011;14238;49.496;8.154;2023-12-29T00:21:04;3.60;;;3.30;;
26594;SDS011;14238;49.496;8.154;2023-12-29T00:23:30;3.53;;;3.23;;
26594;SDS011;14238;49.496;8.154;2023-12-29T00:25:56;2.90;;;2.73;;
26594;SDS011;14238;49.496;8.154;2023-12-29T00:28:22;2.70;;;2.50;;
26594;SDS011;14238;49.496;8.154;2023-12-29T00:30:48;3.10;;;2.90;;
26594;SDS011;14238;49.496;8.154;2023-12-29T00:33:14;3.20;;;3.00;;
26594;SDS011;14238;49.496;8.154;2023-12-29T00:35:40;3.90;;;3.67;;
26594;SDS011;14238;49.496;8.154;2023-12-29T00:38:06;3.53;;;3.33;;
26594;SDS011;14238;49.496;8.154;2023-12-29T00:40:33;3.47;;;3.17;;
26594;SDS011;14238;49.496;8.154;2023-12-29T00:43:02;3.37;;;3.07;;
26594;SDS011;14238;49.496;8.154;2023-12-29T00:45:28;3.43;;;3.23;;
26594;SDS011;14238;49.496;8.154;2023-12-29T00:47:57;2.87;;;2.77;;
26594;SDS011;14238;49.496;8.154;2023-12-29T00:50:23;3.77;;;3.57;;
26594;SDS011;14238;49.496;8.154;2023-12-29T00:52:49;2.93;;;2.70;;
26594;SDS011;14238;49.496;8.154;2023-12-29T00:55:15;3.83;;;3.17;;
26594;SDS011;14238;49.496;8.154;2023-12-29T00:57:41;3.70;;;3.47;;
26594;SDS011;14238;49.496;8.154;2023-12-29T01:00:10;4.23;;;3.93;;
26594;SDS011;14238;49.496;8.154;2023-12-29T01:02:36;3.93;;;3.63;;
26594;SDS011;14238;49.496;8.154;2023-12-29T01:05:02;3.47;;;3.27;;
26594;SDS011;14238;49.496;8.154;2023-12-29T01:07:28;3.90;;;3.60;;
26594;SDS011;14238;49.496;8.154;2023-12-29T01:09:54;3.40;;;3.20;;
26594;SDS011;14238;49.496;8.154;2023-12-29T01:12:20;4.20;;;3.87;;
26594;SDS011;14238;49.496;8.154;2023-12-29T01:14:46;4.07;;;3.77;;
26594;SDS011;14238;49.496;8.154;2023-12-29T01:17:12;4.10;;;3.47;;
26594;SDS011;14238;49.496;8.154;2023-12-29T01:19:38;4.43;;;4.03;;
26594;SDS011;14238;49.496;8.154;2023-12-29T01:22:04;4.50;;;4.20;;
26594;SDS011;14238;49.496;8.154;2023-12-29T01:24:30;5.03;;;4.60;;
26594;SDS011;14238;49.496;8.154;2023-12-29T01:26:56;4.93;;;4.50;;
26594;SDS011;14238;49.496;8.154;2023-12-29T01:29:22;4.50;;;4.10;;
26594;SDS011;14238;49.496;8.154;2023-12-29T01:31:48;4.10;;;3.80;;
26594;SDS011;14238;49.496;8.154;2023-12-29T01:34:14;5.30;;;4.90;;
26594;SDS011;14238;49.496;8.154;2023-12-29T01:36:40;3.53;;;3.33;;
26594;SDS011;14238;49.496;8.154;2023-12-29T01:39:06;5.43;;;4.93;;
26594;SDS011;14238;49.496;8.154;2023-12-29T01:41:32;4.43;;;4.13;;
26594;SDS011;14238;49.496;8.154;2023-12-29T01:46:30;3.47;;;3.17;;
26594;SDS011;14238;49.496;8.154;2023-12-29T01:48:57;9.13;;;4.13;;
26594;SDS011;14238;49.496;8.154;2023-12-29T01:51:23;4.00;;;3.23;;
26594;SDS011;14238;49.496;8.154;2023-12-29T01:53:51;3.77;;;3.47;;
26594;SDS011;14238;49.496;8.154;2023-12-29T01:56:17;3.20;;;3.00;;
26594;SDS011;14238;49.496;8.154;2023-12-29T01:58:43;3.03;;;2.77;;
26594;SDS011;14238;49.496;8.154;2023-12-29T02:01:09;3.60;;;3.40;;
26594;SDS011;14238;49.496;8.154;2023-12-29T02:03:35;3.10;;;2.90;;
26594;SDS011;14238;49.496;8.154;2023-12-29T02:06:02;3.40;;;3.20;;
26594;SDS011;14238;49.496;8.154;2023-12-29T02:08:28;3.07;;;2.87;;
26594;SDS011;14238;49.496;8.154;2023-12-29T02:10:55;3.43;;;3.10;;
26594;SDS011;14238;49.496;8.154;2023-12-29T02:13:21;3.20;;;2.90;;
26594;SDS011;14238;49.496;8.154;2023-12-29T02:15:47;3.47;;;3.17;;
26594;SDS011;14238;49.496;8.154;2023-12-29T02:18:16;3.00;;;2.63;;
26594;SDS011;14238;49.496;8.154;2023-12-29T02:20:44;2.80;;;2.57;;
26594;SDS011;14238;49.496;8.154;2023-12-29T02:23:10;2.60;;;2.40;;
26594;SDS011;14238;49.496;8.154;2023-12-29T02:25:36;3.00;;;2.70;;
26594;SDS011;14238;49.496;8.154;2023-12-29T02:28:15;2.63;;;2.50;;
26594;SDS011;14238;49.496;8.154;2023-12-29T02:30:44;2.83;;;2.63;;
26594;SDS011;14238;49.496;8.154;2023-12-29T02:33:13;3.50;;;3.07;;
26594;SDS011;14238;49.496;8.154;2023-12-29T02:35:41;2.77;;;2.57;;
26594;SDS011;14238;49.496;8.154;2023-12-29T02:38:08;5.07;;;2.60;;
26594;SDS011;14238;49.496;8.154;2023-12-29T02:40:34;2.97;;;2.77;;
26594;SDS011;14238;49.496;8.154;2023-12-29T02:43:00;3.10;;;2.80;;
26594;SDS011;14238;49.496;8.154;2023-12-29T02:45:26;2.90;;;2.70;;
26594;SDS011;14238;49.496;8.154;2023-12-29T02:47:52;2.77;;;2.53;;
26594;SDS011;14238;49.496;8.154;2023-12-29T02:50:18;2.60;;;2.40;;
26594;SDS011;14238;49.496;8.154;2023-12-29T02:52:44;2.57;;;2.47;;
26594;SDS011;14238;49.496;8.154;2023-12-29T02:55:10;2.63;;;2.43;;
26594;SDS011;14238;49.496;8.154;2023-12-29T02:57:37;3.10;;;2.90;;
26594;SDS011;14238;49.496;8.154;2023-12-29T03:00:03;3.17;;;2.90;;
26594;SDS011;14238;49.496;8.154;2023-12-29T03:02:29;2.87;;;2.67;;
26594;SDS011;14238;49.496;8.154;2023-12-29T03:04:55;2.67;;;2.50;;
26594;SDS011;14238;49.496;8.154;2023-12-29T03:07:21;2.80;;;2.60;;
26594;SDS011;14238;49.496;8.154;2023-12-29T03:09:47;3.03;;;2.70;;
26594;SDS011;14238;49.496;8.154;2023-12-29T03:12:13;2.73;;;2.53;;
26594;SDS011;14238;49.496;8.154;2023-12-29T03:14:39;2.63;;;2.43;;
26594;SDS011;14238;49.496;8.154;2023-12-29T03:17:05;2.97;;;2.77;;
26594;SDS011;14238;49.496;8.154;2023-12-29T03:19:31;2.77;;;2.57;;
26594;SDS011;14238;49.496;8.154;2023-12-29T03:21:57;3.00;;;2.70;;
26594;SDS011;14238;49.496;8.154;2023-12-29T03:24:23;3.63;;;3.33;;
26594;SDS011;14238;49.496;8.154;2023-12-29T03:26:49;2.40;;;2.30;;
26594;SDS011;14238;49.496;8.154;2023-12-29T03:29:15;3.03;;;2.83;;
26594;SDS011;14238;49.496;8.154;2023-12-29T03:31:41;3.07;;;2.87;;
26594;SDS011;14238;49.496;8.154;2023-12-29T03:34:07;3.00;;;2.80;;
26594;SDS011;14238;49.496;8.154;2023-12-29T03:36:33;3.63;;;3.33;;
26594;SDS011;14238;49.496;8.154;2023-12-29T03:38:59;6.53;;;3.37;;
26594;SDS011;14238;49.496;8.154;2023-12-29T03:41:25;3.13;;;2.83;;
26594;SDS011;14238;49.496;8.154;2023-12-29T03:43:51;3.07;;;2.87;;
26594;SDS011;14238;49.496;8.154;2023-12-29T03:46:17;4.03;;;3.73;;
26594;SDS011;14238;49.496;8.154;2023-12-29T03:48:44;3.37;;;3.00;;
26594;SDS011;14238;49.496;8.154;2023-12-29T03:51:10;3.33;;;3.03;;
26594;SDS011;14238;49.496;8.154;2023-12-29T03:53:36;3.80;;;3.10;;
26594;SDS011;14238;49.496;8.154;2023-12-29T03:56:06;2.97;;;2.77;;
26594;SDS011;14238;49.496;8.154;2023-12-29T03:58:32;3.60;;;3.17;;
26594;SDS011;14238;49.496;8.154;2023-12-29T04:00:58;3.57;;;3.37;;
26594;SDS011;14238;49.496;8.154;2023-12-29T04:03:24;4.37;;;3.50;;
26594;SDS011;14238;49.496;8.154;2023-12-29T04:05:50;3.87;;;3.57;;
26594;SDS011;14238;49.496;8.154;2023-12-29T04:08:16;4.43;;;3.37;;
26594;SDS011;14238;49.496;8.154;2023-12-29T04:10:42;4.13;;;3.83;;
26594;SDS011;14238;49.496;8.154;2023-12-29T04:13:08;3.77;;;3.47;;
26594;SDS011;14238;49.496;8.154;2023-12-29T04:15:33;3.60;;;3.27;;
26594;SDS011;14238;49.496;8.154;2023-12-29T04:17:59;3.87;;;3.67;;
26594;SDS011;14238;49.496;8.154;2023-12-29T04:20:25;5.80;;;3.50;;
26594;SDS011;14238;49.496;8.154;2023-12-29T04:22:52;3.43;;;3.00;;
26594;SDS011;14238;49.496;8.154;2023-12-29T04:25:18;3.70;;;3.13;;
26594;SDS011;14238;49.496;8.154;2023-12-29T04:27:44;3.27;;;3.07;;
26594;SDS011;14238;49.496;8.154;2023-12-29T04:30:10;3.40;;;3.10;;
26594;SDS011;14238;49.496;8.154;2023-12-29T04:32:36;3.40;;;3.10;;
26594;SDS011;14238;49.496;8.154;2023-12-29T04:35:02;5.10;;;3.23;;
26594;SDS011;14238;49.496;8.154;2023-12-29T04:37:28;2.93;;;2.73;;
26594;SDS011;14238;49.496;8.154;2023-12-29T04:39:54;3.47;;;3.20;;
26594;SDS011;14238;49.496;8.154;2023-12-29T04:42:20;3.13;;;2.90;;
26594;SDS011;14238;49.496;8.154;2023-12-29T04:44:46;2.83;;;2.63;;
26594;SDS011;14238;49.496;8.154;2023-12-29T04:47:12;3.17;;;2.80;;
26594;SDS011;14238;49.496;8.154;2023-12-29T04:49:38;3.40;;;2.90;;
26594;SDS011;14238;49.496;8.154;2023-12-29T04:52:04;3.50;;;3.20;;
26594;SDS011;14238;49.496;8.154;2023-12-29T04:54:30;3.23;;;2.93;;
26594;SDS011;14238;49.496;8.154;2023-12-29T04:56:56;2.73;;;2.53;;
26594;SDS011;14238;49.496;8.154;2023-12-29T04:59:21;2.47;;;2.37;;
26594;SDS011;14238;49.496;8.154;2023-12-29T05:01:47;3.17;;;2.80;;
26594;SDS011;14238;49.496;8.154;2023-12-29T05:04:13;3.27;;;2.97;;
26594;SDS011;14238;49.496;8.154;2023-12-29T05:06:41;3.03;;;2.73;;
26594;SDS011;14238;49.496;8.154;2023-12-29T05:09:07;6.20;;;3.13;;
26594;SDS011;14238;49.496;8.154;2023-12-29T05:11:33;2.80;;;2.60;;
26594;SDS011;14238;49.496;8.154;2023-12-29T05:13:59;2.87;;;2.57;;
26594;SDS011;14238;49.496;8.154;2023-12-29T05:16:25;2.87;;;2.60;;
26594;SDS011;14238;49.496;8.154;2023-12-29T05:18:51;2.70;;;2.50;;
26594;SDS011;14238;49.496;8.154;2023-12-29T05:21:17;2.57;;;2.37;;
26594;SDS011;14238;49.496;8.154;2023-12-29T05:23:44;3.13;;;2.07;;
26594;SDS011;14238;49.496;8.154;2023-12-29T05:26:10;2.90;;;2.70;;
26594;SDS011;14238;49.496;8.154;2023-12-29T05:28:37;2.00;;;1.90;;
26594;SDS011;14238;49.496;8.154;2023-12-29T05:31:03;2.43;;;2.33;;
26594;SDS011;14238;49.496;8.154;2023-12-29T05:33:30;2.73;;;2.63;;
26594;SDS011;14238;49.496;8.154;2023-12-29T05:35:56;2.40;;;2.30;;
26594;SDS011;14238;49.496;8.154;2023-12-29T05:38:22;2.50;;;2.30;;
26594;SDS011;14238;49.496;8.154;2023-12-29T05:40:48;2.47;;;2.30;;
26594;SDS011;14238;49.496;8.154;2023-12-29T05:43:17;2.97;;;2.70;;
26594;SDS011;14238;49.496;8.154;2023-12-29T05:45:43;2.33;;;2.23;;
26594;SDS011;14238;49.496;8.154;2023-12-29T05:48:09;2.30;;;2.10;;
26594;SDS011;14238;49.496;8.154;2023-12-29T05:50:35;2.60;;;2.37;;
26594;SDS011;14238;49.496;8.154;2023-12-29T05:53:01;2.47;;;2.20;;
26594;SDS011;14238;49.496;8.154;2023-12-29T05:55:27;2.10;;;2.00;;
26594;SDS011;14238;49.496;8.154;2023-12-29T05:57:53;2.50;;;2.30;;
26594;SDS011;14238;49.496;8.154;2023-12-29T06:00:20;1.93;;;1.83;;
26594;SDS011;14238;49.496;8.154;2023-12-29T06:02:46;3.07;;;2.80;;
26594;SDS011;14238;49.496;8.154;2023-12-29T06:05:12;3.13;;;2.43;;
26594;SDS011;14238;49.496;8.154;2023-12-29T06:07:38;2.07;;;1.97;;
26594;SDS011;14238;49.496;8.154;2023-12-29T06:10:04;2.30;;;2.20;;
26594;SDS011;14238;49.496;8.154;2023-12-29T06:12:31;2.63;;;2.47;;
26594;SDS011;14238;49.496;8.154;2023-12-29T06:14:56;2.40;;;2.30;;
26594;SDS011;14238;49.496;8.154;2023-12-29T06:17:22;1.67;;;1.57;;
26594;SDS011;14238;49.496;8.154;2023-12-29T06:19:48;2.30;;;2.10;;
26594;SDS011;14238;49.496;8.154;2023-12-29T06:22:14;2.20;;;2.10;;
26594;SDS011;14238;49.496;8.154;2023-12-29T06:24:40;3.03;;;2.30;;
26594;SDS011;14238;49.496;8.154;2023-12-29T06:27:09;1.93;;;1.80;;
26594;SDS011;14238;49.496;8.154;2023-12-29T06:29:35;2.80;;;2.20;;
26594;SDS011;14238;49.496;8.154;2023-12-29T06:32:02;2.30;;;2.20;;
26594;SDS011;14238;49.496;8.154;2023-12-29T06:34:28;2.10;;;2.00;;
26594;SDS011;14238;49.496;8.154;2023-12-29T06:36:54;2.20;;;2.10;;
26594;SDS011;14238;49.496;8.154;2023-12-29T06:39:20;2.10;;;2.00;;
26594;SDS011;14238;49.496;8.154;2023-12-29T06:41:46;2.60;;;2.40;;
26594;SDS011;14238;49.496;8.154;2023-12-29T06:44:12;2.30;;;2.20;;
26594;SDS011;14238;49.496;8.154;2023-12-29T06:46:38;2.13;;;1.90;;
26594;SDS011;14238;49.496;8.154;2023-12-29T06:49:03;2.53;;;2.20;;
26594;SDS011;14238;49.496;8.154;2023-12-29T06:51:29;2.47;;;2.27;;
26594;SDS011;14238;49.496;8.154;2023-12-29T06:53:55;2.53;;;1.80;;
26594;SDS011;14238;49.496;8.154;2023-12-29T06:56:21;2.17;;;2.07;;
26594;SDS011;14238;49.496;8.154;2023-12-29T06:58:47;2.57;;;2.30;;
26594;SDS011;14238;49.496;8.154;2023-12-29T07:01:13;2.27;;;1.70;;
26594;SDS011;14238;49.496;8.154;2023-12-29T07:03:40;2.53;;;1.70;;
26594;SDS011;14238;49.496;8.154;2023-12-29T07:06:06;2.10;;;1.70;;
26594;SDS011;14238;49.496;8.154;2023-12-29T07:08:32;2.23;;;1.93;;
26594;SDS011;14238;49.496;8.154;2023-12-29T07:10:59;2.10;;;1.73;;
26594;SDS011;14238;49.496;8.154;2023-12-29T07:13:24;2.30;;;2.20;;
26594;SDS011;14238;49.496;8.154;2023-12-29T07:15:50;1.80;;;1.70;;
26594;SDS011;14238;49.496;8.154;2023-12-29T07:18:16;2.63;;;1.60;;
26594;SDS011;14238;49.496;8.154;2023-12-29T07:20:42;3.43;;;2.10;;
26594;SDS011;14238;49.496;8.154;2023-12-29T07:23:08;1.80;;;1.53;;
26594;SDS011;14238;49.496;8.154;2023-12-29T07:25:34;1.77;;;1.47;;
26594;SDS011;14238;49.496;8.154;2023-12-29T07:28:00;1.73;;;1.63;;
26594;SDS011;14238;49.496;8.154;2023-12-29T07:30:26;1.93;;;1.70;;
26594;SDS011;14238;49.496;8.154;2023-12-29T07:32:52;1.60;;;1.50;;
26594;SDS011;14238;49.496;8.154;2023-12-29T07:35:18;1.93;;;1.30;;
26594;SDS011;14238;49.496;8.154;2023-12-29T07:37:44;2.17;;;1.43;;
26594;SDS011;14238;49.496;8.154;2023-12-29T07:40:11;1.93;;;1.57;;
26594;SDS011;14238;49.496;8.154;2023-12-29T07:42:37;3.50;;;1.67;;
26594;SDS011;14238;49.496;8.154;2023-12-29T07:45:03;3.37;;;1.47;;
26594;SDS011;14238;49.496;8.154;2023-12-29T07:47:30;8.87;;;2.10;;
26594;SDS011;14238;49.496;8.154;2023-12-29T07:49:56;3.70;;;2.00;;
26594;SDS011;14238;49.496;8.154;2023-12-29T07:52:22;3.13;;;2.00;;
26594;SDS011;14238;49.496;8.154;2023-12-29T07:54:48;3.37;;;1.60;;
26594;SDS011;14238;49.496;8.154;2023-12-29T07:57:14;2.20;;;1.80;;
26594;SDS011;14238;49.496;8.154;2023-12-29T07:59:40;4.90;;;2.37;;
26594;SDS011;14238;49.496;8.154;2023-12-29T08:02:06;1.97;;;1.80;;
26594;SDS011;14238;49.496;8.154;2023-12-29T08:04:32;1.70;;;1.40;;
26594;SDS011;14238;49.496;8.154;2023-12-29T08:06:58;1.90;;;1.73;;
26594;SDS011;14238;49.496;8.154;2023-12-29T08:09:25;2.03;;;1.93;;
26594;SDS011;14238;49.496;8.154;2023-12-29T08:11:51;3.10;;;1.77;;
26594;SDS011;14238;49.496;8.154;2023-12-29T08:14:17;2.00;;;1.80;;
26594;SDS011;14238;49.496;8.154;2023-12-29T08:16:43;1.67;;;1.57;;
26594;SDS011;14238;49.496;8.154;2023-12-29T08:19:09;2.10;;;1.90;;
26594;SDS011;14238;49.496;8.154;2023-12-29T08:21:36;2.33;;;2.13;;
26594;SDS011;14238;49.496;8.154;2023-12-29T08:24:02;2.00;;;1.80;;
26594;SDS011;14238;49.496;8.154;2023-12-29T08:26:28;2.20;;;1.70;;
26594;SDS011;14238;49.496;8.154;2023-12-29T08:28:54;3.23;;;1.97;;
26594;SDS011;14238;49.496;8.154;2023-12-29T08:31:20;2.50;;;2.30;;
26594;SDS011;14238;49.496;8.154;2023-12-29T08:33:48;2.20;;;2.00;;
26594;SDS011;14238;49.496;8.154;2023-12-29T08:36:14;2.83;;;1.63;;
26594;SDS011;14238;49.496;8.154;2023-12-29T08:38:39;2.63;;;2.40;;
26594;SDS011;14238;49.496;8.154;2023-12-29T08:41:05;2.40;;;1.80;;
26594;SDS011;14238;49.496;8.154;2023-12-29T08:43:31;2.90;;;1.60;;
26594;SDS011;14238;49.496;8.154;2023-12-29T08:46:00;2.77;;;2.57;;
26594;SDS011;14238;49.496;8.154;2023-12-29T08:48:26;2.77;;;2.57;;
26594;SDS011;14238;49.496;8.154;2023-12-29T08:50:52;2.00;;;1.90;;
26594;SDS011;14238;49.496;8.154;2023-12-29T08:53:18;2.90;;;1.90;;
26594;SDS011;14238;49.496;8.154;2023-12-29T08:55:44;2.87;;;2.00;;
26594;SDS011;14238;49.496;8.154;2023-12-29T08:58:12;3.13;;;2.50;;
26594;SDS011;14238;49.496;8.154;2023-12-29T09:00:38;5.97;;;3.60;;
26594;SDS011;14238;49.496;8.154;2023-12-29T09:03:04;17.27;;;9.53;;
26594;SDS011;14238;49.496;8.154;2023-12-29T09:05:30;5.20;;;4.00;;
26594;SDS011;14238;49.496;8.154;2023-12-29T09:07:56;20.60;;;11.53;;
26594;SDS011;14238;49.496;8.154;2023-12-29T09:10:22;15.63;;;10.00;;
26594;SDS011;14238;49.496;8.154;2023-12-29T09:12:48;7.40;;;5.87;;
26594;SDS011;14238;49.496;8.154;2023-12-29T09:15:14;2.40;;;2.20;;
26594;SDS011;14238;49.496;8.154;2023-12-29T09:17:40;1.60;;;1.50;;
26594;SDS011;14238;49.496;8.154;2023-12-29T09:20:06;1.87;;;1.77;;
26594;SDS011;14238;49.496;8.154;2023-12-29T09:22:33;1.77;;;1.60;;
26594;SDS011;14238;49.496;8.154;2023-12-29T09:24:59;2.57;;;1.70;;
26594;SDS011;14238;49.496;8.154;2023-12-29T09:27:25;1.90;;;1.80;;
26594;SDS011;14238;49.496;8.154;2023-12-29T09:29:51;1.87;;;1.57;;
26594;SDS011;14238;49.496;8.154;2023-12-29T09:32:16;1.90;;;1.80;;
26594;SDS011;14238;49.496;8.154;2023-12-29T09:34:42;1.70;;;1.60;;
26594;SDS011;14238;49.496;8.154;2023-12-29T09:37:08;2.50;;;1.47;;
26594;SDS011;14238;49.496;8.154;2023-12-29T09:39:34;4.93;;;2.00;;
26594;SDS011;14238;49.496;8.154;2023-12-29T09:42:00;2.93;;;1.60;;
26594;SDS011;14238;49.496;8.154;2023-12-29T09:44:27;1.10;;;1.10;;
26594;SDS011;14238;49.496;8.154;2023-12-29T09:46:54;1.90;;;1.80;;
26594;SDS011;14238;49.496;8.154;2023-12-29T09:49:20;1.70;;;1.60;;
26594;SDS011;14238;49.496;8.154;2023-12-29T09:51:46;2.07;;;1.30;;
26594;SDS011;14238;49.496;8.154;2023-12-29T09:54:13;1.63;;;1.17;;
26594;SDS011;14238;49.496;8.154;2023-12-29T09:56:39;1.37;;;1.27;;
26594;SDS011;14238;49.496;8.154;2023-12-29T09:59:06;1.27;;;1.23;;
26594;SDS011;14238;49.496;8.154;2023-12-29T10:01:34;1.60;;;1.50;;
26594;SDS011;14238;49.496;8.154;2023-12-29T10:04:00;1.03;;;1.00;;
26594;SDS011;14238;49.496;8.154;2023-12-29T10:06:27;1.83;;;1.70;;
26594;SDS011;14238;49.496;8.154;2023-12-29T10:08:56;1.03;;;1.03;;
26594;SDS011;14238;49.496;8.154;2023-12-29T10:11:23;1.10;;;1.10;;
26594;SDS011;14238;49.496;8.154;2023-12-29T10:13:50;2.73;;;1.23;;
26594;SDS011;14238;49.496;8.154;2023-12-29T10:16:35;2.13;;;1.30;;
26594;SDS011;14238;49.496;8.154;2023-12-29T10:24:34;1.70;;;1.60;;
26594;SDS011;14238;49.496;8.154;2023-12-29T10:27:01;1.50;;;1.40;;
26594;SDS011;14238;49.496;8.154;2023-12-29T10:29:27;2.20;;;1.37;;
26594;SDS011;14238;49.496;8.154;2023-12-29T10:31:53;2.27;;;1.40;;
26594;SDS011;14238;49.496;8.154;2023-12-29T10:34:23;1.10;;;1.10;;
26594;SDS011;14238;49.496;8.154;2023-12-29T10:36:54;2.07;;;1.33;;
26594;SDS011;14238;49.496;8.154;2023-12-29T10:39:20;1.70;;;1.60;;
26594;SDS011;14238;49.496;8.154;2023-12-29T10:41:46;1.20;;;1.10;;
26594;SDS011;14238;49.496;8.154;2023-12-29T10:44:12;1.90;;;1.20;;
26594;SDS011;14238;49.496;8.154;2023-12-29T10:46:38;1.47;;;1.37;;
26594;SDS011;14238;49.496;8.154;2023-12-29T10:49:07;1.47;;;1.10;;
26594;SDS011;14238;49.496;8.154;2023-12-29T10:51:37;1.07;;;1.07;;
26594;SDS011;14238;49.496;8.154;2023-12-29T10:54:03;2.00;;;1.23;;
26594;SDS011;14238;49.496;8.154;2023-12-29T10:56:33;1.20;;;1.20;;
26594;SDS011;14238;49.496;8.154;2023-12-29T10:58:59;1.63;;;1.37;;
26594;SDS011;14238;49.496;8.154;2023-12-29T11:01:27;1.00;;;1.00;;
26594;SDS011;14238;49.496;8.154;2023-12-29T11:04:05;1.90;;;0.97;;
26594;SDS011;14238;49.496;8.154;2023-12-29T11:06:42;1.90;;;1.17;;
26594;SDS011;14238;49.496;8.154;2023-12-29T11:09:10;2.00;;;1.80;;
26594;SDS011;14238;49.496;8.154;2023-12-29T11:11:37;1.67;;;1.40;;
26594;SDS011;14238;49.496;8.154;2023-12-29T11:14:03;1.30;;;1.30;;
26594;SDS011;14238;49.496;8.154;2023-12-29T11:16:29;8.20;;;7.40;;
26594;SDS011;14238;49.496;8.154;2023-12-29T11:18:56;1.47;;;1.37;;
26594;SDS011;14238;49.496;8.154;2023-12-29T11:21:23;2.73;;;1.07;;
26594;SDS011;14238;49.496;8.154;2023-12-29T11:23:51;1.80;;;1.70;;
26594;SDS011;14238;49.496;8.154;2023-12-29T11:26:18;1.57;;;1.00;;
26594;SDS011;14238;49.496;8.154;2023-12-29T11:28:47;1.97;;;1.07;;
26594;SDS011;14238;49.496;8.154;2023-12-29T11:31:19;2.20;;;1.00;;
26594;SDS011;14238;49.496;8.154;2023-12-29T11:33:50;1.97;;;0.80;;
26594;SDS011;14238;49.496;8.154;2023-12-29T11:36:23;1.90;;;1.00;;
26594;SDS011;14238;49.496;8.154;2023-12-29T11:38:58;1.43;;;1.00;;
26594;SDS011;14238;49.496;8.154;2023-12-29T11:41:28;1.40;;;1.30;;
26594;SDS011;14238;49.496;8.154;2023-12-29T11:43:57;1.50;;;1.00;;
26594;SDS011;14238;49.496;8.154;2023-12-29T11:46:36;1.10;;;1.10;;
26594;SDS011;14238;49.496;8.154;2023-12-29T11:49:02;1.53;;;1.33;;
26594;SDS011;14238;49.496;8.154;2023-12-29T11:51:30;2.07;;;1.87;;
26594;SDS011;14238;49.496;8.154;2023-12-29T11:53:56;1.50;;;1.40;;
26594;SDS011;14238;49.496;8.154;2023-12-29T11:56:22;2.77;;;1.37;;
26594;SDS011;14238;49.496;8.154;2023-12-29T11:58:48;1.57;;;1.20;;
26594;SDS011;14238;49.496;8.154;2023-12-29T12:01:32;1.03;;;1.03;;
26594;SDS011;14238;49.496;8.154;2023-12-29T12:03:59;3.33;;;1.90;;
26594;SDS011;14238;49.496;8.154;2023-12-29T12:06:37;1.77;;;1.30;;
26594;SDS011;14238;49.496;8.154;2023-12-29T12:09:16;1.47;;;1.37;;
26594;SDS011;14238;49.496;8.154;2023-12-29T12:11:43;1.10;;;1.10;;
26594;SDS011;14238;49.496;8.154;2023-12-29T12:14:09;1.27;;;1.10;;
26594;SDS011;14238;49.496;8.154;2023-12-29T12:19:10;1.40;;;1.30;;
26594;SDS011;14238;49.496;8.154;2023-12-29T12:21:36;1.87;;;1.30;;
26594;SDS011;14238;49.496;8.154;2023-12-29T12:24:07;2.20;;;1.53;;
26594;SDS011;14238;49.496;8.154;2023-12-29T12:26:33;1.60;;;1.20;;
26594;SDS011;14238;49.496;8.154;2023-12-29T12:29:00;1.13;;;1.03;;
26594;SDS011;14238;49.496;8.154;2023-12-29T12:31:26;1.07;;;1.07;;
26594;SDS011;14238;49.496;8.154;2023-12-29T12:33:58;1.90;;;1.43;;
26594;SDS011;14238;49.496;8.154;2023-12-29T12:36:27;2.50;;;1.20;;
26594;SDS011;14238;49.496;8.154;2023-12-29T12:38:57;0.90;;;0.90;;
26594;SDS011;14238;49.496;8.154;2023-12-29T12:41:24;1.27;;;1.17;;
26594;SDS011;14238;49.496;8.154;2023-12-29T12:44:02;1.17;;;1.10;;
26594;SDS011;14238;49.496;8.154;2023-12-29T12:46:33;1.10;;;1.10;;
26594;SDS011;14238;49.496;8.154;2023-12-29T12:48:59;1.47;;;1.10;;
26594;SDS011;14238;49.496;8.154;2023-12-29T12:51:25;1.03;;;0.93;;
26594;SDS011;14238;49.496;8.154;2023-12-29T12:53:52;1.30;;;1.20;;
26594;SDS011;14238;49.496;8.154;2023-12-29T12:56:18;0.93;;;0.93;;
26594;SDS011;14238;49.496;8.154;2023-12-29T12:58:45;0.90;;;0.90;;
26594;SDS011;14238;49.496;8.154;2023-12-29T13:01:12;1.80;;;1.70;;
26594;SDS011;14238;49.496;8.154;2023-12-29T13:03:38;1.30;;;1.30;;
26594;SDS011;14238;49.496;8.154;2023-12-29T13:06:05;1.47;;;1.37;;
26594;SDS011;14238;49.496;8.154;2023-12-29T13:08:32;1.40;;;1.30;;
26594;SDS011;14238;49.496;8.154;2023-12-29T13:10:58;1.63;;;1.53;;
26594;SDS011;14238;49.496;8.154;2023-12-29T13:13:35;1.43;;;1.43;;
26594;SDS011;14238;49.496;8.154;2023-12-29T13:16:01;1.50;;;1.40;;
26594;SDS011;14238;49.496;8.154;2023-12-29T13:18:28;1.60;;;1.50;;
26594;SDS011;14238;49.496;8.154;2023-12-29T13:20:56;1.50;;;1.40;;
26594;SDS011;14238;49.496;8.154;2023-12-29T13:23:25;1.70;;;1.60;;
26594;SDS011;14238;49.496;8.154;2023-12-29T13:25:53;1.50;;;1.50;;
26594;SDS011;14238;49.496;8.154;2023-12-29T13:28:19;1.53;;;1.53;;
26594;SDS011;14238;49.496;8.154;2023-12-29T13:30:45;1.70;;;1.57;;
26594;SDS011;14238;49.496;8.154;2023-12-29T13:33:15;1.57;;;1.47;;
26594;SDS011;14238;49.496;8.154;2023-12-29T13:35:50;1.70;;;1.60;;
26594;SDS011;14238;49.496;8.154;2023-12-29T13:38:28;1.57;;;1.47;;
26594;SDS011;14238;49.496;8.154;2023-12-29T13:40:56;1.90;;;1.80;;
26594;SDS011;14238;49.496;8.154;2023-12-29T13:43:23;1.70;;;1.30;;
26594;SDS011;14238;49.496;8.154;2023-12-29T13:45:49;1.67;;;1.57;;
26594;SDS011;14238;49.496;8.154;2023-12-29T13:48:15;1.83;;;1.60;;
26594;SDS011;14238;49.496;8.154;2023-12-29T13:50:48;2.47;;;1.23;;
26594;SDS011;14238;49.496;8.154;2023-12-29T13:53:18;2.30;;;1.30;;
26594;SDS011;14238;49.496;8.154;2023-12-29T13:55:44;2.07;;;1.67;;
26594;SDS011;14238;49.496;8.154;2023-12-29T13:58:10;12.37;;;3.40;;
26594;SDS011;14238;49.496;8.154;2023-12-29T14:00:37;2.77;;;2.40;;
26594;SDS011;14238;49.496;8.154;2023-12-29T14:03:05;1.63;;;1.53;;
26594;SDS011;14238;49.496;8.154;2023-12-29T14:05:35;1.90;;;1.37;;
26594;SDS011;14238;49.496;8.154;2023-12-29T14:08:08;2.50;;;1.40;;
26594;SDS011;14238;49.496;8.154;2023-12-29T14:10:34;1.47;;;1.20;;
26594;SDS011;14238;49.496;8.154;2023-12-29T14:13:11;3.23;;;1.30;;
26594;SDS011;14238;49.496;8.154;2023-12-29T14:15:38;1.37;;;1.27;;
26594;SDS011;14238;49.496;8.154;2023-12-29T14:20:49;2.30;;;0.97;;
26594;SDS011;14238;49.496;8.154;2023-12-29T14:23:17;1.13;;;1.00;;
26594;SDS011;14238;49.496;8.154;2023-12-29T14:25:44;0.93;;;0.90;;
26594;SDS011;14238;49.496;8.154;2023-12-29T14:28:18;1.30;;;1.20;;
26594;SDS011;14238;49.496;8.154;2023-12-29T14:30:46;1.10;;;1.10;;
26594;SDS011;14238;49.496;8.154;2023-12-29T14:33:12;1.33;;;0.80;;
26594;SDS011;14238;49.496;8.154;2023-12-29T14:35:39;1.00;;;0.90;;
26594;SDS011;14238;49.496;8.154;2023-12-29T14:38:05;1.50;;;1.17;;
26594;SDS011;14238;49.496;8.154;2023-12-29T14:40:30;1.00;;;1.00;;
26594;SDS011;14238;49.496;8.154;2023-12-29T14:43:00;0.90;;;0.90;;
26594;SDS011;14238;49.496;8.154;2023-12-29T14:45:26;1.20;;;1.07;;
26594;SDS011;14238;49.496;8.154;2023-12-29T14:47:54;1.20;;;1.10;;
26594;SDS011;14238;49.496;8.154;2023-12-29T14:50:20;0.93;;;0.80;;
26594;SDS011;14238;49.496;8.154;2023-12-29T14:52:46;2.87;;;1.23;;
26594;SDS011;14238;49.496;8.154;2023-12-29T14:55:12;1.40;;;0.83;;
26594;SDS011;14238;49.496;8.154;2023-12-29T14:57:38;1.30;;;1.20;;
26594;SDS011;14238;49.496;8.154;2023-12-29T15:00:04;2.17;;;1.13;;